KWI weather

Kuwait International Airport
Kuwait City, Al Farwaniyah Governorate, Kuwait

Public forecast

Using degrees Celsius for public forecast. Weather courtesy of forecast.io.

METAR (pilot weather report)

Retrieved 2019/05/25 20:00 UTC (23 minutes ago):

OKBK 252000Z 19004KT CAVOK 30/10 Q1007 NOSIG

TAF (pilot weather forecast)

Retrieved 2019/05/25 18:00 UTC (2 hours ago):

TAF OBBI 251700Z 2518/2700 VRB05KT CAVOK= TAF OKBK 251645Z 2518/2624 15008KT 6000 SKC TEMPO 2518/2603 VRB03KT